createdAt,value
2019-04-06T00:01:13.683Z,99782.64
2019-04-06T00:03:42.115Z,99784.76
2019-04-06T00:06:10.510Z,99780.94
2019-04-06T00:08:38.986Z,99783.49
2019-04-06T00:11:07.491Z,99776.27
2019-04-06T00:13:35.882Z,99775.84
2019-04-06T00:16:04.363Z,99779.25
2019-04-06T00:18:32.838Z,99777.98
2019-04-06T00:21:01.262Z,99778.84
2019-04-06T00:23:29.666Z,99782.24
2019-04-06T00:25:58.084Z,99783.55
2019-04-06T00:28:26.501Z,99776.34
2019-04-06T00:30:56.554Z,99778.47
2019-04-06T00:33:26.744Z,99776.34
2019-04-06T00:35:55.138Z,99778.89
2019-04-06T00:38:23.620Z,99775.08
2019-04-06T00:40:52.064Z,99772.52
2019-04-06T00:43:20.431Z,99778.05
2019-04-06T00:45:48.851Z,99773.80
2019-04-06T00:48:17.401Z,99774.66
2019-04-06T00:50:45.816Z,99773.80
2019-04-06T00:53:14.295Z,99765.73
2019-04-06T00:55:42.692Z,99770.41
2019-04-06T00:58:11.145Z,99761.91
2019-04-06T01:00:39.606Z,99763.61
2019-04-06T01:03:08.010Z,99755.53
2019-04-06T01:05:36.456Z,99755.95
2019-04-06T01:08:05.029Z,99750.42
2019-04-06T01:10:33.437Z,99746.61
2019-04-06T01:13:01.848Z,99750.00
2019-04-06T01:15:30.271Z,99756.38
2019-04-06T01:17:58.690Z,99754.67
2019-04-06T01:20:27.104Z,99756.80
2019-04-06T01:22:55.497Z,99762.33
2019-04-06T01:25:23.914Z,99755.95
2019-04-06T01:27:52.318Z,99755.53
2019-04-06T01:30:22.076Z,99758.92
2019-04-06T01:32:50.519Z,99755.52
2019-04-06T01:35:18.934Z,99752.55
2019-04-06T01:37:47.345Z,99755.53
2019-04-06T01:40:15.871Z,99753.41
2019-04-06T01:42:44.292Z,99760.62
2019-04-06T01:45:12.948Z,99759.77
2019-04-06T01:47:41.408Z,99758.92
2019-04-06T01:50:09.836Z,99762.75
2019-04-06T01:52:38.323Z,99758.08
2019-04-06T01:55:06.844Z,99761.05
2019-04-06T01:57:35.427Z,99757.65
2019-04-06T02:00:06.190Z,99758.08
2019-04-06T02:02:36.314Z,99752.97
2019-04-06T02:05:07.255Z,99756.38
2019-04-06T02:07:35.682Z,99750.84
2019-04-06T02:10:06.113Z,99750.84
2019-04-06T02:12:34.515Z,99746.17
2019-04-06T02:15:03.409Z,99750.42
2019-04-06T02:17:31.802Z,99750.84
2019-04-06T02:20:00.216Z,99750.84
2019-04-06T02:22:28.614Z,99744.47
2019-04-06T02:24:57.012Z,99742.77
2019-04-06T02:27:25.435Z,99733.84
2019-04-06T02:30:10.841Z,99738.52
2019-04-06T02:32:43.499Z,99738.95
2019-04-06T02:35:25.227Z,99740.65
2019-04-06T02:37:55.260Z,99738.95
2019-04-06T02:40:25.323Z,99745.75
2019-04-06T02:43:04.092Z,99745.32
2019-04-06T02:45:32.483Z,99742.77
2019-04-06T02:48:00.924Z,99742.77
2019-04-06T02:50:29.463Z,99739.80
2019-04-06T02:52:57.899Z,99746.17
2019-04-06T02:55:26.314Z,99738.10
2019-04-06T02:57:54.742Z,99738.95
2019-04-06T03:00:23.254Z,99743.63
2019-04-06T03:02:51.778Z,99746.60
2019-04-06T03:05:20.259Z,99751.27
2019-04-06T03:07:48.738Z,99750.42
2019-04-06T03:10:17.305Z,99747.02
2019-04-06T03:12:45.726Z,99748.30
2019-04-06T03:15:14.356Z,99753.83
2019-04-06T03:17:42.831Z,99745.32
2019-04-06T03:20:11.462Z,99745.75
2019-04-06T03:22:40.044Z,99745.31
2019-04-06T03:25:08.601Z,99749.14
2019-04-06T03:27:37.088Z,99750.42
2019-04-06T03:30:07.453Z,99750.84
2019-04-06T03:32:35.916Z,99746.59
2019-04-06T03:35:05.766Z,99748.72
2019-04-06T03:37:34.154Z,99748.72
2019-04-06T03:40:02.539Z,99741.50
2019-04-06T03:42:30.958Z,99744.47
2019-04-06T03:44:59.423Z,99744.90
2019-04-06T03:47:27.851Z,99741.50
2019-04-06T03:49:56.256Z,99747.02
2019-04-06T03:52:24.868Z,99745.74
2019-04-06T03:54:53.246Z,99746.98
2019-04-06T03:57:21.666Z,99746.58
2019-04-06T03:59:50.067Z,99751.69
2019-04-06T04:02:18.803Z,99751.27
2019-04-06T04:04:47.328Z,99747.44
2019-04-06T04:07:15.769Z,99755.09
2019-04-06T04:09:45.018Z,99748.30
2019-04-06T04:12:13.429Z,99752.97
2019-04-06T04:14:41.922Z,99745.31
2019-04-06T04:17:10.455Z,99744.04
2019-04-06T04:19:38.822Z,99747.02
2019-04-06T04:22:07.262Z,99745.31
2019-04-06T04:24:35.754Z,99742.77
2019-04-06T04:27:04.343Z,99747.88
2019-04-06T04:29:32.763Z,99749.99
2019-04-06T04:32:01.213Z,99755.52
2019-04-06T04:34:29.631Z,99755.95
2019-04-06T04:36:58.115Z,99753.40
2019-04-06T04:39:26.540Z,99751.27
2019-04-06T04:41:54.962Z,99753.39
2019-04-06T04:44:23.363Z,99756.79
2019-04-06T04:46:51.804Z,99755.94
2019-04-06T04:49:20.405Z,99757.22
2019-04-06T04:51:48.747Z,99758.91
2019-04-06T04:54:17.194Z,99764.02
2019-04-06T04:56:45.585Z,99766.98
2019-04-06T04:59:14.004Z,99772.94
2019-04-06T05:01:42.501Z,99771.23
2019-04-06T05:04:10.912Z,99774.64
2019-04-06T05:06:39.358Z,99777.19
2019-04-06T05:09:08.118Z,99775.48
2019-04-06T05:11:36.498Z,99777.18
2019-04-06T05:14:41.084Z,99775.02
2019-04-06T05:17:09.516Z,99770.81
2019-04-06T05:19:37.885Z,99783.98
2019-04-06T05:22:06.300Z,99777.19
2019-04-06T05:24:34.718Z,99780.17
2019-04-06T05:27:03.142Z,99789.95
2019-04-06T05:29:33.102Z,99508.38
2019-04-06T05:32:01.667Z,99784.85
2019-04-06T05:34:30.079Z,99790.38
2019-04-06T05:36:58.480Z,99791.23
2019-04-06T05:39:26.875Z,99794.64
2019-04-06T05:41:55.314Z,99800.17
2019-04-06T05:44:23.719Z,99798.47
2019-04-06T05:46:52.126Z,99798.47
2019-04-06T05:49:20.560Z,99802.30
2019-04-06T05:51:49.092Z,99807.44
2019-04-06T05:54:17.501Z,99803.20
2019-04-06T05:56:46.141Z,99804.48
2019-04-06T05:59:14.606Z,99810.86
2019-04-06T06:01:43.029Z,99812.56
2019-04-06T06:04:11.601Z,99814.70
2019-04-06T06:06:40.154Z,99810.03
2019-04-06T06:09:08.727Z,99814.28
2019-04-06T06:11:37.278Z,99814.71
2019-04-06T06:14:06.639Z,99821.55
2019-04-06T06:16:35.036Z,99819.00
2019-04-06T06:19:03.502Z,99823.27
2019-04-06T06:21:32.055Z,99826.25
2019-04-06T06:24:00.466Z,99823.70
2019-04-06T06:26:29.031Z,99822.89
2019-04-06T06:28:57.434Z,99818.64
2019-04-06T06:31:25.864Z,99822.08
2019-04-06T06:33:54.367Z,99820.81
2019-04-06T06:36:22.767Z,99819.97
2019-04-06T06:38:51.176Z,99823.80
2019-04-06T06:41:19.829Z,99819.55
2019-04-06T06:43:48.172Z,99826.78
2019-04-06T06:46:16.664Z,99818.73
2019-04-06T06:48:45.089Z,99824.27
2019-04-06T06:51:13.631Z,99819.17
2019-04-06T06:53:42.175Z,99821.30
2019-04-06T06:56:14.503Z,99818.78
2019-04-06T06:58:42.873Z,99823.46
2019-04-06T07:01:11.297Z,99817.93
2019-04-06T07:03:39.922Z,99818.78
2019-04-06T07:06:08.458Z,99819.20
2019-04-06T07:08:37.174Z,99815.83
2019-04-06T07:11:08.066Z,99813.70
2019-04-06T07:13:37.190Z,99819.66
2019-04-06T07:16:07.460Z,99820.08
2019-04-06T07:18:35.879Z,99814.58
2019-04-06T07:21:04.712Z,99815.42
2019-04-06T07:23:33.515Z,99817.55
2019-04-06T07:26:01.954Z,99809.48
2019-04-06T07:28:37.465Z,99812.03
2019-04-06T07:31:00.549Z,99817.13
2019-04-06T07:33:28.965Z,99819.25
2019-04-06T07:35:57.390Z,99818.42
2019-04-06T07:38:26.078Z,99821.81
2019-04-06T07:40:54.462Z,99814.99
2019-04-06T07:43:22.887Z,99823.52
2019-04-06T07:45:51.274Z,99817.96
2019-04-06T07:48:19.812Z,99818.41
2019-04-06T07:50:48.450Z,99813.28
2019-04-06T07:53:16.852Z,99810.70
2019-04-06T07:55:45.287Z,99813.67
2019-04-06T07:58:13.776Z,99816.68
2019-04-06T08:00:42.201Z,99815.38
2019-04-06T08:03:10.607Z,99819.63
2019-04-06T08:05:39.115Z,99820.06
2019-04-06T08:08:07.508Z,99813.23
2019-04-06T08:10:35.958Z,99815.35
2019-04-06T08:13:04.410Z,99817.04
2019-04-06T08:15:33.014Z,99817.04
2019-04-06T08:18:01.412Z,99818.31
2019-04-06T08:20:29.800Z,99817.47
2019-04-06T08:22:58.226Z,99812.77
2019-04-06T08:25:26.912Z,99811.05
2019-04-06T08:27:55.229Z,99814.87
2019-04-06T08:30:23.679Z,99811.03
2019-04-06T08:32:52.170Z,99814.86
2019-04-06T08:35:25.789Z,99811.02
2019-04-06T08:37:50.773Z,99811.44
2019-04-06T08:40:19.321Z,99816.57
2019-04-06T08:42:47.722Z,99816.55
2019-04-06T08:45:16.442Z,99812.69
2019-04-06T08:47:44.874Z,99815.22
2019-04-06T08:50:13.622Z,99815.64
2019-04-06T08:52:42.106Z,99818.58
2019-04-06T08:55:10.720Z,99822.39
2019-04-06T08:57:39.151Z,99823.67
2019-04-06T09:00:08.295Z,99822.38
2019-04-06T09:02:36.772Z,99814.28
2019-04-06T09:05:06.891Z,99824.95
2019-04-06T09:07:35.396Z,99823.66
2019-04-06T09:10:06.318Z,99820.20
2019-04-06T09:12:34.758Z,99817.59
2019-04-06T09:15:04.620Z,99818.02
2019-04-06T09:17:33.023Z,99817.14
2019-04-06T09:20:01.637Z,99815.86
2019-04-06T09:22:29.997Z,99817.52
2019-04-06T09:24:58.435Z,99817.09
2019-04-06T09:27:26.875Z,99814.45
2019-04-06T09:29:55.488Z,99812.27
2019-04-06T09:32:23.875Z,99804.16
2019-04-06T09:34:52.367Z,99808.06
2019-04-06T09:37:21.013Z,99808.52
2019-04-06T09:39:49.350Z,99806.33
2019-04-06T09:42:17.769Z,99806.27
2019-04-06T09:44:47.823Z,99803.70
2019-04-06T09:47:23.953Z,99799.42
2019-04-06T09:49:53.956Z,99799.78
2019-04-06T09:52:40.239Z,99797.62
2019-04-06T09:55:13.167Z,99798.88
2019-04-06T09:57:43.499Z,99797.51
2019-04-06T10:00:14.097Z,99790.16
2019-04-06T10:02:47.041Z,99787.08
2019-04-06T10:05:17.105Z,99792.17
2019-04-06T10:08:03.621Z,99786.55
2019-04-06T10:10:36.620Z,99777.12
2019-04-06T10:13:18.823Z,99781.84
2019-04-06T10:15:54.998Z,99778.41
2019-04-06T10:18:31.559Z,99783.58
2019-04-06T10:21:17.763Z,99784.48
2019-04-06T10:24:05.986Z,99788.76
2019-04-06T10:26:47.646Z,99793.45
2019-04-06T10:29:18.156Z,99791.74
2019-04-06T10:32:04.928Z,99788.70
2019-04-06T10:34:38.158Z,99781.75
2019-04-06T10:37:17.418Z,99778.98
2019-04-06T10:39:47.464Z,99781.86
2019-04-06T10:42:32.743Z,99780.53
2019-04-06T10:45:05.914Z,99783.95
2019-04-06T10:47:36.002Z,99779.94
2019-04-06T10:50:25.027Z,99778.09
2019-04-06T10:53:01.471Z,99774.05
2019-04-06T10:55:40.359Z,99770.95
2019-04-06T10:58:12.956Z,99767.03
2019-04-06T11:00:46.052Z,99768.62
2019-04-06T11:03:19.009Z,99769.40
2019-04-06T11:05:58.090Z,99761.12
2019-04-06T11:08:44.709Z,99755.00
2019-04-06T11:11:19.358Z,99755.42
2019-04-06T11:13:59.035Z,99746.29
2019-04-06T11:16:47.671Z,99744.95
2019-04-06T11:19:32.127Z,99744.89
2019-04-06T11:22:02.484Z,99745.30
2019-04-06T11:24:48.625Z,99744.35
2019-04-06T11:27:34.837Z,99738.77
2019-04-06T11:30:17.396Z,99737.78
2019-04-06T11:32:53.354Z,99735.55
2019-04-06T11:35:38.761Z,99734.47
2019-04-06T11:38:20.786Z,99733.41
2019-04-06T11:40:56.643Z,99736.98
2019-04-06T11:43:26.712Z,99729.06
2019-04-06T11:46:09.029Z,99730.22
2019-04-06T11:48:39.103Z,99726.33
2019-04-06T11:51:09.148Z,99726.83
2019-04-06T11:53:51.197Z,99733.17
2019-04-06T11:56:27.492Z,99721.95
2019-04-06T11:59:03.766Z,99727.52
2019-04-06T12:01:36.963Z,99719.34
2019-04-06T12:04:07.047Z,99713.21
2019-04-06T12:06:43.137Z,99717.27
2019-04-06T12:09:21.955Z,99717.83
2019-04-06T12:11:52.039Z,99713.56
2019-04-06T12:14:24.685Z,99717.16
2019-04-06T12:17:04.131Z,99715.95
2019-04-06T12:19:34.289Z,99713.50
2019-04-06T12:22:20.729Z,99707.52
2019-04-06T12:25:08.945Z,99704.46
2019-04-06T12:27:55.214Z,99712.28
2019-04-06T12:30:37.437Z,99708.20
2019-04-06T12:32:59.880Z,99710.06
2019-04-06T12:35:45.849Z,99698.71
2019-04-06T12:38:33.994Z,99704.18
2019-04-06T12:41:16.150Z,99703.45
2019-04-06T12:43:55.238Z,99699.94
2019-04-06T12:46:41.277Z,99695.22
2019-04-06T12:49:11.356Z,99685.48
2019-04-06T12:51:54.040Z,99695.96
2019-04-06T12:54:40.332Z,99691.92
2019-04-06T12:57:13.562Z,99693.25
2019-04-06T12:59:43.608Z,99691.42
2019-04-06T13:02:16.420Z,99687.67
2019-04-06T13:04:48.968Z,99683.36
2019-04-06T13:07:27.942Z,99684.65
2019-04-06T13:09:58.091Z,99677.27
2019-04-06T13:12:28.561Z,99676.83
2019-04-06T13:15:05.121Z,99668.61
2019-04-06T13:17:46.960Z,99676.75
2019-04-06T13:20:17.360Z,99678.88
2019-04-06T13:22:59.458Z,99675.91
2019-04-06T13:25:29.603Z,99669.36
2019-04-06T13:28:11.857Z,99672.98
2019-04-06T13:31:02.969Z,99671.95
2019-04-06T13:33:29.069Z,99673.52
2019-04-06T13:35:59.093Z,99672.36
2019-04-06T13:38:38.715Z,99667.11
2019-04-06T13:41:25.264Z,99668.55
2019-04-06T13:43:55.676Z,99668.72
2019-04-06T13:46:42.202Z,99677.52
2019-04-06T13:49:17.971Z,99675.61
2019-04-06T13:51:50.750Z,99678.63
2019-04-06T13:54:37.537Z,99671.70
2019-04-06T13:57:07.833Z,99668.72
2019-04-06T13:59:49.999Z,99669.84
2019-04-06T14:02:20.504Z,99665.44
2019-04-06T14:05:05.598Z,99664.78
2019-04-06T14:07:44.489Z,99668.88
2019-04-06T14:10:26.833Z,99671.75
2019-04-06T14:12:56.906Z,99666.88
2019-04-06T14:15:43.424Z,99666.88
2019-04-06T14:18:13.510Z,99675.76
2019-04-06T14:20:49.291Z,99673.42
2019-04-06T14:23:19.368Z,99673.96
2019-04-06T14:26:04.851Z,99674.09
2019-04-06T14:28:51.280Z,99674.09
2019-04-06T14:31:30.895Z,99668.95
2019-04-06T14:34:09.913Z,99674.85
2019-04-06T14:36:46.015Z,99675.16
2019-04-06T14:39:28.161Z,99674.72
2019-04-06T14:42:14.918Z,99674.58
2019-04-06T14:44:50.741Z,99679.09
2019-04-06T14:47:20.774Z,99676.91
2019-04-06T14:49:51.041Z,99678.36
2019-04-06T14:52:24.090Z,99679.30
2019-04-06T14:55:06.153Z,99679.84
2019-04-06T14:57:51.201Z,99685.89
2019-04-06T15:00:21.384Z,99679.92
2019-04-06T15:02:57.548Z,99680.51
2019-04-06T15:05:44.109Z,99673.25
2019-04-06T15:08:28.923Z,99678.41
2019-04-06T15:11:01.982Z,99673.25
2019-04-06T15:13:48.113Z,99679.42
2019-04-06T15:16:34.564Z,99683.43
2019-04-06T15:19:10.484Z,99683.66
2019-04-06T15:21:43.790Z,99676.76
2019-04-06T15:24:16.359Z,99672.84
2019-04-06T15:26:58.799Z,99672.30
2019-04-06T15:29:28.968Z,99669.16
2019-04-06T15:32:15.545Z,99667.50
2019-04-06T15:35:03.275Z,99668.59
2019-04-06T15:37:48.987Z,99663.25
2019-04-06T15:40:34.319Z,99661.50
2019-04-06T15:43:18.789Z,99660.53
2019-04-06T15:45:48.345Z,99659.95
2019-04-06T15:48:38.016Z,99659.27
2019-04-06T15:51:23.434Z,99662.90
2019-04-06T15:54:01.324Z,99658.73
2019-04-06T15:56:46.406Z,99662.60
2019-04-06T15:59:17.236Z,99659.42
2019-04-06T16:01:58.536Z,99658.87
2019-04-06T16:04:29.119Z,99656.88
2019-04-06T16:06:59.270Z,99656.73
2019-04-06T16:09:38.359Z,99657.08
2019-04-06T16:12:08.427Z,99655.39
2019-04-06T16:14:41.531Z,99655.84
2019-04-06T16:17:14.390Z,99661.41
2019-04-06T16:19:45.077Z,99662.25
2019-04-06T16:22:18.637Z,99659.42
2019-04-06T16:25:05.474Z,99657.78
2019-04-06T16:27:35.602Z,99654.84
2019-04-06T16:30:08.227Z,99653.67
2019-04-06T16:32:38.452Z,99660.83
2019-04-06T16:35:14.981Z,99657.98
2019-04-06T16:37:48.006Z,99654.62
2019-04-06T16:40:23.835Z,99647.91
2019-04-06T16:42:59.825Z,99643.24
2019-04-06T16:45:48.016Z,99643.24
2019-04-06T16:48:36.848Z,99645.52
2019-04-06T16:51:25.017Z,99647.26
2019-04-06T16:53:55.521Z,99649.48
2019-04-06T16:56:28.208Z,99643.09
2019-04-06T16:59:10.245Z,99649.55
2019-04-06T17:01:42.814Z,99645.23
2019-04-06T17:04:31.488Z,99646.56
2019-04-06T17:07:16.686Z,99641.80
2019-04-06T17:09:49.942Z,99650.89
2019-04-06T17:12:28.803Z,99653.12
2019-04-06T17:15:15.280Z,99646.27
2019-04-06T17:17:51.277Z,99648.59
2019-04-06T17:20:33.562Z,99645.71
2019-04-06T17:23:15.664Z,99650.14
2019-04-06T17:25:58.062Z,99648.94
2019-04-06T17:28:44.485Z,99646.94
2019-04-06T17:31:14.985Z,99650.56
2019-04-06T17:34:03.748Z,99652.43
2019-04-06T17:36:36.851Z,99653.90
2019-04-06T17:39:14.325Z,99654.97
2019-04-06T17:42:00.534Z,99650.07
2019-04-06T17:44:48.833Z,99651.05
2019-04-06T17:47:37.243Z,99654.20
2019-04-06T17:50:12.155Z,99652.25
2019-04-06T17:52:42.765Z,99654.27
2019-04-06T17:55:13.440Z,99661.73
2019-04-06T17:57:43.663Z,99660.24
2019-04-06T18:00:30.417Z,99664.72
2019-04-06T18:03:06.610Z,99665.36
2019-04-06T18:05:48.785Z,99676.06
2019-04-06T18:08:21.619Z,99675.36
2019-04-06T18:10:54.748Z,99676.02
2019-04-06T18:13:40.201Z,99680.03
2019-04-06T18:16:08.999Z,99678.11
2019-04-06T18:18:37.506Z,99677.14
2019-04-06T18:21:05.984Z,99681.64
2019-04-06T18:23:34.605Z,99675.75
2019-04-06T18:26:03.617Z,99678.59
2019-04-06T18:28:32.097Z,99677.38
2019-04-06T18:31:04.836Z,99683.95
2019-04-06T18:33:33.258Z,99686.52
2019-04-06T18:36:01.703Z,99690.31
2019-04-06T18:38:34.452Z,99692.45
2019-04-06T18:41:02.864Z,99684.42
2019-04-06T18:43:31.554Z,99689.76
2019-04-06T18:45:59.901Z,99686.92
2019-04-06T18:48:28.569Z,99692.18
2019-04-06T18:50:57.130Z,99695.16
2019-04-06T18:53:25.561Z,99696.02
2019-04-06T18:55:54.016Z,99692.88
2019-04-06T18:58:22.422Z,99695.77
2019-04-06T19:00:51.002Z,99695.42
2019-04-06T19:03:19.467Z,99697.00
2019-04-06T19:05:50.050Z,99701.73
2019-04-06T19:08:18.580Z,99697.91
2019-04-06T19:10:47.560Z,99701.36
2019-04-06T19:13:16.059Z,99700.11
2019-04-06T19:15:44.486Z,99692.59
2019-04-06T19:18:13.451Z,99699.02
2019-04-06T19:20:41.939Z,99701.17
2019-04-06T19:23:10.376Z,99703.69
2019-04-06T19:25:38.768Z,99701.19
2019-04-06T19:28:07.657Z,99702.44
2019-04-06T19:30:36.278Z,99705.95
2019-04-06T19:33:04.820Z,99700.55
2019-04-06T19:35:33.302Z,99709.77
2019-04-06T19:38:02.019Z,99710.75
2019-04-06T19:40:30.692Z,99703.63
2019-04-06T19:42:59.181Z,99702.48
2019-04-06T19:45:27.680Z,99704.70
2019-04-06T19:47:56.693Z,99702.20
2019-04-06T19:50:25.201Z,99690.59
2019-04-06T19:52:53.610Z,99689.59
2019-04-06T19:55:22.885Z,99690.77
2019-04-06T19:57:51.688Z,99696.44
2019-04-06T20:00:20.575Z,99696.11
2019-04-06T20:02:49.619Z,99692.36
2019-04-06T20:05:18.509Z,99692.11
2019-04-06T20:07:46.995Z,99698.66
2019-04-06T20:10:15.576Z,99701.25
2019-04-06T20:12:44.016Z,99695.70
2019-04-06T20:15:13.254Z,99691.80
2019-04-06T20:17:41.777Z,99692.65
2019-04-06T20:20:10.263Z,99690.80
2019-04-06T20:22:38.709Z,99686.48
2019-04-06T20:25:08.218Z,99682.65
2019-04-06T20:27:36.773Z,99691.34
2019-04-06T20:30:07.811Z,99683.28
2019-04-06T20:32:36.353Z,99684.96
2019-04-06T20:35:07.632Z,99681.48
2019-04-06T20:37:36.000Z,99688.64
2019-04-06T20:40:07.738Z,99683.88
2019-04-06T20:42:36.132Z,99679.11
2019-04-06T20:45:06.893Z,99685.53
2019-04-06T20:47:35.693Z,99690.20
2019-04-06T20:50:07.114Z,99679.97
2019-04-06T20:52:36.078Z,99701.98
2019-04-06T20:55:06.886Z,99672.25
2019-04-06T20:57:35.288Z,99683.38
2019-04-06T21:00:06.029Z,99688.13
2019-04-06T21:02:34.480Z,99456.33
2019-04-06T21:05:03.110Z,99691.73
2019-04-06T21:07:31.466Z,99685.45
2019-04-06T21:10:00.540Z,99691.02
2019-04-06T21:12:29.176Z,99682.08
2019-04-06T21:14:57.678Z,99692.34
2019-04-06T21:17:26.605Z,99692.32
2019-04-06T21:19:55.176Z,99179.48
2019-04-06T21:22:23.919Z,99686.83
2019-04-06T21:24:52.745Z,99688.16
2019-04-06T21:27:21.748Z,99682.61
2019-04-06T21:29:50.733Z,99688.16
2019-04-06T21:32:19.167Z,99680.06
2019-04-06T21:34:47.593Z,99683.07
2019-04-06T21:37:16.015Z,99678.77
2019-04-06T21:39:44.937Z,99680.47
2019-04-06T21:42:14.448Z,99675.38
2019-04-06T21:44:43.460Z,99671.50
2019-04-06T21:47:12.159Z,99674.91
2019-04-06T21:49:40.573Z,99673.21
2019-04-06T21:52:09.010Z,99676.20
2019-04-06T21:54:37.434Z,99671.92
2019-04-06T21:57:06.197Z,99672.80
2019-04-06T21:59:34.741Z,99674.89
2019-04-06T22:02:03.385Z,99673.64
2019-04-06T22:04:32.644Z,99671.11
2019-04-06T22:07:01.271Z,99672.87
2019-04-06T22:09:30.467Z,99668.61
2019-04-06T22:11:58.960Z,99671.17
2019-04-06T22:14:27.377Z,99667.30
2019-04-06T22:16:56.040Z,99666.84
2019-04-06T22:19:24.802Z,99665.14
2019-04-06T22:21:54.340Z,99660.88
2019-04-06T22:24:22.978Z,99661.80
2019-04-06T22:26:51.933Z,99661.77
2019-04-06T22:29:20.717Z,99665.19
2019-04-06T22:31:49.260Z,99657.52
2019-04-06T22:34:17.659Z,99660.58
2019-04-06T22:36:46.702Z,99660.16
2019-04-06T22:39:15.441Z,99661.00
2019-04-06T22:41:43.880Z,99656.36
2019-04-06T22:44:12.259Z,99662.31
2019-04-06T22:46:40.821Z,99658.05
2019-04-06T22:49:09.229Z,99655.05
2019-04-06T22:51:37.970Z,99652.82
2019-04-06T22:54:06.809Z,99652.39
2019-04-06T22:56:35.299Z,99647.27
2019-04-06T22:59:03.719Z,99649.42
2019-04-06T23:01:34.569Z,99643.03
2019-04-06T23:04:07.699Z,99648.66
2019-04-06T23:06:47.007Z,99646.94
2019-04-06T23:09:15.425Z,99641.41
2019-04-06T23:11:43.836Z,99638.81
2019-04-06T23:14:12.516Z,99648.57
2019-04-06T23:16:44.045Z,99640.86
2019-04-06T23:19:12.455Z,99645.09
2019-04-06T23:21:41.370Z,99643.86
2019-04-06T23:24:10.089Z,99640.83
2019-04-06T23:26:39.790Z,99638.70
2019-04-06T23:29:08.806Z,99635.70
2019-04-06T23:31:37.401Z,99635.26
2019-04-06T23:34:05.870Z,99631.80
2019-04-06T23:36:34.268Z,99630.05
2019-04-06T23:39:03.439Z,99622.37
2019-04-06T23:41:32.302Z,99624.91
2019-04-06T23:44:00.906Z,99623.17
2019-04-06T23:46:30.159Z,99631.73
2019-04-06T23:48:59.207Z,99627.89
2019-04-06T23:51:29.290Z,99631.30
2019-04-06T23:53:58.418Z,99628.27
2019-04-06T23:56:26.918Z,99629.52
2019-04-06T23:58:55.339Z,99626.92
